NORTHERN QUEENS  -  Air Quality Alert Air Quality Alert        SOUTHERN QUEENS  -  Air Quality Alert Air Quality Alert      

Active alerts

Northern Queens
  Details for Northern Queens Air Quality Alert
Southern Queens
  Details for Southern Queens Air Quality Alert


WXM80 ListenWXM80 Stop

You find our weather info also at:

UK Metoffice

WeatherCloud

Weather Underground

Northeastern Weather Network

AWEKAS

Citizen Weather Observer Program (CWOP)

HAMweather, WeatherForYou, PWS Weather


Weather Underground History page Text

Daily Summary for March 8, 2017 Units:  Metric    English   Both
« Previous Day
Next Day »
Daily Weekly Monthly Yearly Custom
  High: Low: Average:
Temperature: 15.5 °C 8.4 °C 11.4 °C
Dew Point: 10.2 °C -2.6 °C 4.1 °C
Humidity: 95 % 30 % 64 %
Wind Speed: 23.2 km/h 0 km/h 9.8 km/h
Wind Gust: 37 km/h - -
Wind:- - SW
Pressure: 1015.1 hPa 1010.4 hPa -
Precipitation: 0 mm    
Historical Graphs
 
 
Tabular Data for March 8, 2017
Time Temperature Dew Point Pressure Wind Wind Speed Wind Gust Humidity Rainfall Rate (Hourly)
00:04 11.1 °C 8.4 °C 1015.1 hPa South 7.2 km/h 11.1 km/h 84 % 0 mm
00:09 11.1 °C 8.5 °C 1015.1 hPa South 7.4 km/h 13 km/h 84 % 0 mm
00:14 11.1 °C 8.5 °C 1015.1 hPa SSW 11.3 km/h 18.5 km/h 84 % 0 mm
00:19 11.2 °C 8.6 °C 1014.8 hPa South 8 km/h 11.1 km/h 84 % 0 mm
00:24 11.2 °C 8.6 °C 1015.1 hPa South 7.6 km/h 13 km/h 84 % 0 mm
00:29 11.2 °C 8.6 °C 1014.8 hPa South 8.5 km/h 12.9 km/h 84 % 0 mm
00:34 11.2 °C 8.6 °C 1014.4 hPa South 7.2 km/h 12.9 km/h 84 % 0 mm
00:39 11.3 °C 8.7 °C 1014.4 hPa SSW 10.6 km/h 19.3 km/h 84 % 0 mm
00:44 11.3 °C 8.7 °C 1014.4 hPa SSW 9 km/h 11.3 km/h 84 % 0 mm
00:50 11.4 °C 8.8 °C 1014.1 hPa SSW 9.3 km/h 18.5 km/h 84 % 0 mm
00:54 11.5 °C 8.9 °C 1014.1 hPa SSW 6.4 km/h 14.8 km/h 84 % 0 mm
01:00 11.6 °C 9.1 °C 1014.1 hPa SSE 12.9 km/h 19.3 km/h 85 % 0 mm
01:05 11.6 °C 9.1 °C 1014.1 hPa South 10.6 km/h 16.7 km/h 85 % 0 mm
01:10 11.6 °C 9.1 °C 1014.1 hPa SSW 6.3 km/h 16.7 km/h 85 % 0 mm
01:11 11.6 °C 9.1 °C 1014.1 hPa SSE 9 km/h 13 km/h 85 % 0 mm
01:16 11.6 °C 9.1 °C 1014.1 hPa SSW 11.4 km/h 20.4 km/h 85 % 0 mm
01:17 11.6 °C 9.1 °C 1014.1 hPa SSW 9 km/h 16.7 km/h 85 % 0 mm
01:22 11.6 °C 9.3 °C 1013.8 hPa WSW 8.9 km/h 14.8 km/h 86 % 0 mm
01:27 11.7 °C 9.4 °C 1013.8 hPa SW 13.7 km/h 18.5 km/h 86 % 0 mm
01:32 11.7 °C 9.6 °C 1013.8 hPa SSW 10.1 km/h 18.5 km/h 87 % 0 mm
01:37 11.7 °C 9.6 °C 1013.8 hPa SSW 10.5 km/h 13 km/h 87 % 0 mm
01:42 11.8 °C 9.7 °C 1013.4 hPa South 10.6 km/h 20.4 km/h 87 % 0 mm
01:47 11.8 °C 9.8 °C 1013.4 hPa SW 6.9 km/h 13 km/h 88 % 0 mm
01:52 11.7 °C 9.9 °C 1013.1 hPa SW 7.6 km/h 14.8 km/h 89 % 0 mm
01:57 11.7 °C 9.9 °C 1013.1 hPa SSE 10.5 km/h 20.9 km/h 89 % 0 mm
02:02 11.7 °C 9.9 °C 1013.1 hPa SW 11.6 km/h 30.6 km/h 89 % 0 mm
02:07 11.7 °C 10.1 °C 1013.1 hPa South 8.9 km/h 18.5 km/h 90 % 0 mm
02:12 11.7 °C 10.1 °C 1013.1 hPa South 8.7 km/h 18.5 km/h 90 % 0 mm
02:17 11.7 °C 10.1 °C 1013.1 hPa SSW 9.2 km/h 18.5 km/h 90 % 0 mm
02:23 11.7 °C 10.1 °C 1013.1 hPa South 11.4 km/h 20.4 km/h 90 % 0 mm
02:28 11.7 °C 10.1 °C 1012.8 hPa SSE 10.9 km/h 16.7 km/h 90 % 0 mm
02:33 11.6 °C 10 °C 1012.8 hPa SSW 10.3 km/h 13 km/h 90 % 0 mm
02:38 11.6 °C 9.9 °C 1012.4 hPa SSW 8 km/h 18.5 km/h 90 % 0 mm
02:43 11.5 °C 9.9 °C 1012.4 hPa South 9.7 km/h 19.3 km/h 90 % 0 mm
02:48 11.5 °C 9.9 °C 1012.4 hPa SSW 11.3 km/h 19.3 km/h 90 % 0 mm
02:53 11.4 °C 9.9 °C 1012.4 hPa SSW 9.7 km/h 20.9 km/h 90 % 0 mm
02:58 11.4 °C 9.8 °C 1012.1 hPa South 9.8 km/h 14.5 km/h 90 % 0 mm
03:03 11.3 °C 9.9 °C 1011.7 hPa SSW 11.4 km/h 14.5 km/h 91 % 0 mm
03:08 11.3 °C 9.9 °C 1011.7 hPa South 18 km/h 29.6 km/h 91 % 0 mm
03:13 11.3 °C 9.9 °C 1011.7 hPa South 17.1 km/h 27.8 km/h 91 % 0 mm
03:18 11.3 °C 9.9 °C 1011.7 hPa SW 13.7 km/h 24.1 km/h 91 % 0 mm
03:23 11.3 °C 9.8 °C 1011.7 hPa South 13.7 km/h 22.2 km/h 90 % 0 mm
03:29 11.3 °C 9.7 °C 1011.4 hPa South 10.3 km/h 16.7 km/h 90 % 0 mm
03:34 11.3 °C 9.9 °C 1011.4 hPa South 11.7 km/h 16.7 km/h 91 % 0 mm
03:39 11.4 °C 9.9 °C 1011.1 hPa SSW 8.9 km/h 16.1 km/h 91 % 0 mm
03:44 11.4 °C 10 °C 1011.1 hPa SSW 13.5 km/h 25.9 km/h 91 % 0 mm
03:49 11.5 °C 10.1 °C 1011.1 hPa SSW 13.2 km/h 25.9 km/h 91 % 0 mm
03:54 11.6 °C 10.2 °C 1011.1 hPa SSW 8.7 km/h 22.2 km/h 91 % 0 mm
03:59 11.7 °C 10.1 °C 1011.1 hPa South 8 km/h 25.9 km/h 90 % 0 mm
04:04 11.7 °C 10.1 °C 1011.1 hPa SSW 10.8 km/h 18.5 km/h 90 % 0 mm
04:09 11.7 °C 10.1 °C 1010.7 hPa SSW 10.1 km/h 20.4 km/h 90 % 0 mm
04:14 11.7 °C 10.1 °C 1011.1 hPa SSW 7.1 km/h 14.8 km/h 90 % 0 mm
04:20 11.7 °C 10.1 °C 1011.1 hPa SSW 11.9 km/h 16.1 km/h 90 % 0 mm
04:22 11.7 °C 10.1 °C 1011.1 hPa South 8.7 km/h 14.8 km/h 90 % 0 mm
04:27 11.7 °C 10.1 °C 1011.1 hPa South 12.6 km/h 16.7 km/h 90 % 0 mm
04:32 11.6 °C 10 °C 1011.1 hPa SSW 13 km/h 24.1 km/h 90 % 0 mm
04:37 11.6 °C 9.9 °C 1011.1 hPa SW 13 km/h 22.2 km/h 90 % 0 mm
04:43 11.6 °C 9.9 °C 1011.1 hPa SSW 11.3 km/h 18.5 km/h 90 % 0 mm
04:48 11.5 °C 9.9 °C 1010.7 hPa SW 11.9 km/h 20.9 km/h 90 % 0 mm
04:53 11.4 °C 9.9 °C 1010.7 hPa South 10.3 km/h 16.7 km/h 90 % 0 mm
04:58 11.4 °C 9.8 °C 1010.4 hPa South 10.6 km/h 18.5 km/h 90 % 0 mm
05:03 11.3 °C 9.8 °C 1010.4 hPa South 13.8 km/h 22.2 km/h 90 % 0 mm
05:08 11.3 °C 9.9 °C 1010.4 hPa South 12.9 km/h 24.1 km/h 91 % 0 mm
05:13 11.3 °C 9.9 °C 1010.4 hPa South 11.3 km/h 22.5 km/h 91 % 0 mm
05:18 11.3 °C 9.7 °C 1010.7 hPa South 11.3 km/h 20.9 km/h 90 % 0 mm
05:23 11.2 °C 9.8 °C 1010.7 hPa SSW 9.7 km/h 19.3 km/h 91 % 0 mm
05:28 11.2 °C 9.8 °C 1010.7 hPa SSW 12.9 km/h 32.2 km/h 91 % 0 mm
05:33 11.1 °C 9.8 °C 1010.7 hPa SSW 12.9 km/h 20.9 km/h 92 % 0 mm
05:38 11 °C 9.8 °C 1010.7 hPa SSW 12.9 km/h 29 km/h 92 % 0 mm
05:43 10.9 °C 9.8 °C 1010.7 hPa South 10.1 km/h 16.7 km/h 93 % 0 mm
05:48 10.8 °C 9.7 °C 1010.7 hPa SSW 11.3 km/h 19.3 km/h 93 % 0 mm
05:53 10.8 °C 9.7 °C 1010.7 hPa SSW 8.7 km/h 16.7 km/h 93 % 0 mm
05:58 10.7 °C 9.6 °C 1010.7 hPa SSW 10.1 km/h 20.9 km/h 93 % 0 mm
06:03 10.7 °C 9.6 °C 1010.7 hPa South 9.7 km/h 14.8 km/h 93 % 0 mm
06:08 10.7 °C 9.7 °C 1010.7 hPa SSW 8.7 km/h 16.7 km/h 94 % 0 mm
06:13 10.7 °C 9.7 °C 1010.7 hPa SSW 15 km/h 20.4 km/h 94 % 0 mm
06:18 10.7 °C 9.7 °C 1010.7 hPa SSW 10 km/h 18.5 km/h 94 % 0 mm
06:23 10.7 °C 9.9 °C 1013.1 hPa West 23.2 km/h 37 km/h 95 % 0 mm
06:28 10.2 °C 9.2 °C 1013.1 hPa NW 16.6 km/h 33.3 km/h 93 % 0 mm
06:29 10.2 °C 8.9 °C 1013.1 hPa SW 15 km/h 33.3 km/h 92 % 0 mm
06:34 9.7 °C 8.3 °C 1013.1 hPa West 11.4 km/h 19.3 km/h 91 % 0 mm
06:39 9.4 °C 7.8 °C 1013.4 hPa WNW 8.5 km/h 25.9 km/h 90 % 0 mm
06:44 9.1 °C 7.3 °C 1013.4 hPa WSW 15 km/h 24.1 km/h 89 % 0 mm
06:49 8.8 °C 7.1 °C 1013.8 hPa WSW 11.4 km/h 24.1 km/h 89 % 0 mm
06:54 8.7 °C 7 °C 1013.4 hPa West 11.6 km/h 20.4 km/h 89 % 0 mm
06:59 8.6 °C 6.7 °C 1013.8 hPa WSW 11.4 km/h 20.4 km/h 88 % 0 mm
07:04 8.6 °C 6.7 °C 1013.8 hPa West 12.1 km/h 29.6 km/h 88 % 0 mm
07:09 8.5 °C 6.4 °C 1013.4 hPa WNW 7.9 km/h 14.8 km/h 87 % 0 mm
07:14 8.5 °C 6.4 °C 1013.4 hPa West 3.5 km/h 6.4 km/h 87 % 0 mm
07:19 8.4 °C 6.2 °C 1013.4 hPa West 2.3 km/h 13 km/h 86 % 0 mm
07:25 8.4 °C 6.2 °C 1013.4 hPa West 9.7 km/h 11.1 km/h 86 % 0 mm
07:30 8.4 °C 6.1 °C 1013.4 hPa West 8.2 km/h 16.1 km/h 85 % 0 mm
07:35 8.5 °C 5.9 °C 1013.4 hPa WSW 9.8 km/h 9.8 km/h 84 % 0 mm
07:40 8.5 °C 5.9 °C 1013.4 hPa WNW 1.6 km/h 9.3 km/h 84 % 0 mm
07:45 8.5 °C 5.9 °C 1013.1 hPa WSW 6.4 km/h 14.8 km/h 84 % 0 mm
07:50 8.6 °C 6 °C 1013.4 hPa WSW 6.1 km/h 11.1 km/h 84 % 0 mm
07:55 8.6 °C 5.8 °C 1013.1 hPa West 4 km/h 6.4 km/h 83 % 0 mm
08:00 8.6 °C 5.8 °C 1013.1 hPa West 0.3 km/h 7.4 km/h 83 % 0 mm
08:05 8.6 °C 5.9 °C 1013.1 hPa Calm   3.7 km/h 83 % 0 mm
08:10 8.6 °C 5.9 °C 1013.1 hPa SW 1.8 km/h 3.7 km/h 83 % 0 mm
08:15 8.7 °C 5.9 °C 1012.8 hPa SW 0.5 km/h 5.6 km/h 83 % 0 mm
08:20 8.7 °C 6.1 °C 1013.1 hPa SW 4.3 km/h 9.7 km/h 84 % 0 mm
08:25 8.6 °C 5.9 °C 1013.4 hPa SW 6.6 km/h 8 km/h 83 % 0 mm
08:30 8.6 °C 5.6 °C 1013.1 hPa WSW 3.2 km/h 5.6 km/h 81 % 0 mm
08:36 8.6 °C 5.7 °C 1013.4 hPa West 6.8 km/h 13 km/h 82 % 0 mm
08:41 8.7 °C 5.6 °C 1013.4 hPa WSW 6.4 km/h 19.3 km/h 81 % 0 mm
08:46 8.7 °C 5.6 °C 1013.8 hPa SW 10 km/h 12.9 km/h 81 % 0 mm
08:51 8.7 °C 5.4 °C 1014.1 hPa SW 8.9 km/h 14.8 km/h 80 % 0 mm
08:56 8.7 °C 5.3 °C 1014.1 hPa WSW 19.2 km/h 24.1 km/h 79 % 0 mm
09:01 8.8 °C 5.3 °C 1014.4 hPa WSW 9 km/h 18.5 km/h 79 % 0 mm
09:06 8.8 °C 5.2 °C 1014.4 hPa WSW 11.9 km/h 22.2 km/h 78 % 0 mm
09:08 8.8 °C 5.2 °C 1014.1 hPa WSW 20.8 km/h 24.1 km/h 78 % 0 mm
09:13 8.8 °C 5.2 °C 1014.4 hPa WSW 16.7 km/h 22.5 km/h 78 % 0 mm
09:18 8.9 °C 5.3 °C 1014.4 hPa WSW 14.5 km/h 27.4 km/h 78 % 0 mm
09:23 8.9 °C 5.1 °C 1014.4 hPa WSW 12.9 km/h 27.4 km/h 77 % 0 mm
09:28 8.9 °C 5.1 °C 1014.4 hPa WSW 8 km/h 27.4 km/h 77 % 0 mm
09:33 9.1 °C 4.9 °C 1014.1 hPa West 12.9 km/h 32.2 km/h 75 % 0 mm
09:38 9.2 °C 4.8 °C 1014.4 hPa West 12.9 km/h 25.7 km/h 74 % 0 mm
09:43 9.3 °C 4.7 °C 1014.4 hPa West 12.9 km/h 32.2 km/h 73 % 0 mm
09:48 9.4 °C 4.8 °C 1014.4 hPa WSW 14.5 km/h 27.4 km/h 73 % 0 mm
09:53 9.4 °C 4.4 °C 1014.8 hPa West 16.1 km/h 32.2 km/h 71 % 0 mm
09:58 9.4 °C 4.4 °C 1014.4 hPa WNW 12.2 km/h 22.2 km/h 71 % 0 mm
10:03 9.5 °C 4.5 °C 1014.4 hPa NW 10.6 km/h 20.4 km/h 71 % 0 mm
10:08 9.7 °C 4.8 °C 1014.4 hPa West 10.1 km/h 18.5 km/h 72 % 0 mm
10:13 9.8 °C 4.8 °C 1014.8 hPa WNW 6.6 km/h 14.8 km/h 71 % 0 mm
10:18 9.9 °C 4.5 °C 1014.8 hPa WSW 14.5 km/h 22.2 km/h 69 % 0 mm
10:23 10.1 °C 4.4 °C 1014.8 hPa WSW 13.8 km/h 25.7 km/h 68 % 0 mm
10:28 10.2 °C 4.3 °C 1014.8 hPa NW 13.4 km/h 29.6 km/h 67 % 0 mm
10:33 10.3 °C 4.3 °C 1014.8 hPa WNW 11.7 km/h 18.5 km/h 66 % 0 mm
10:38 10.4 °C 4.2 °C 1014.8 hPa NW 8.5 km/h 18.5 km/h 65 % 0 mm
10:43 10.5 °C 3.9 °C 1014.8 hPa WNW 7.4 km/h 16.7 km/h 64 % 0 mm
10:49 10.8 °C 4.5 °C 1015.1 hPa West 10.6 km/h 18.5 km/h 65 % 0 mm
10:54 11 °C 4.4 °C 1015.1 hPa WSW 9.7 km/h 16.7 km/h 64 % 0 mm
10:59 11.3 °C 4.7 °C 1015.1 hPa WSW 7.9 km/h 17.7 km/h 64 % 0 mm
11:04 11.4 °C 4.2 °C 1015.1 hPa West 8.4 km/h 16.7 km/h 61 % 0 mm
11:09 11.7 °C 4.2 °C 1014.8 hPa West 12.9 km/h 18.5 km/h 60 % 0 mm
11:14 11.9 °C 4.2 °C 1014.8 hPa WNW 12.2 km/h 22.2 km/h 59 % 0 mm
11:19 12.1 °C 4.1 °C 1015.1 hPa West 10.6 km/h 19.3 km/h 58 % 0 mm
11:24 12.3 °C 3.8 °C 1015.1 hPa WNW 11.3 km/h 22.2 km/h 56 % 0 mm
11:29 12.4 °C 3.6 °C 1015.1 hPa WNW 7.2 km/h 22.2 km/h 55 % 0 mm
11:34 12.6 °C 3.6 °C 1014.8 hPa West 7.6 km/h 18.5 km/h 54 % 0 mm
11:39 12.7 °C 3.4 °C 1014.8 hPa WSW 11.4 km/h 17.7 km/h 53 % 0 mm
11:44 12.8 °C 3.5 °C 1014.8 hPa West 6.6 km/h 14.8 km/h 53 % 0 mm
11:49 13 °C 3.9 °C 1014.8 hPa NW 7.9 km/h 14.8 km/h 54 % 0 mm
11:54 13.2 °C 3.5 °C 1014.8 hPa West 9.8 km/h 17.7 km/h 52 % 0 mm
11:59 13.2 °C 3.5 °C 1014.8 hPa WNW 8.7 km/h 14.5 km/h 52 % 0 mm
12:05 13.1 °C 3.2 °C 1014.8 hPa SW 10.6 km/h 14.8 km/h 51 % 0 mm
12:10 13.1 °C 3.2 °C 1014.4 hPa WSW 9.3 km/h 18.5 km/h 51 % 0 mm
12:15 13.3 °C 3.1 °C 1014.4 hPa WSW 8.5 km/h 18.5 km/h 50 % 0 mm
12:20 13.3 °C 3.1 °C 1014.1 hPa SW 8.4 km/h 20.4 km/h 50 % 0 mm
12:25 13.5 °C 3.8 °C 1014.1 hPa NW 5.3 km/h 11.1 km/h 52 % 0 mm
12:29 13.7 °C 3.1 °C 1014.1 hPa WSW 8.9 km/h 14.8 km/h 49 % 0 mm
12:34 13.8 °C 2.9 °C 1014.1 hPa WSW 9 km/h 14.8 km/h 48 % 0 mm
12:39 13.9 °C 2.8 °C 1014.1 hPa WNW 6.3 km/h 11.1 km/h 47 % 0 mm
12:44 14.1 °C 2.6 °C 1014.1 hPa WSW 9.3 km/h 14.8 km/h 46 % 0 mm
12:49 14.2 °C 2.7 °C 1013.8 hPa WSW 11.3 km/h 18.5 km/h 46 % 0 mm
12:54 14.3 °C 2.8 °C 1013.8 hPa West 7.9 km/h 11.1 km/h 46 % 0 mm
13:00 14.3 °C 1.9 °C 1013.8 hPa West 14 km/h 22.2 km/h 43 % 0 mm
13:05 14.2 °C 1.5 °C 1013.4 hPa SSW 12.6 km/h 14.5 km/h 42 % 0 mm
13:10 14.3 °C 1.2 °C 1013.4 hPa WSW 8.2 km/h 14.8 km/h 41 % 0 mm
13:15 14.3 °C 1.5 °C 1013.4 hPa WNW 6.8 km/h 14.8 km/h 42 % 0 mm
13:20 14.4 °C 1.3 °C 1013.4 hPa West 1.3 km/h 11.3 km/h 41 % 0 mm
13:25 14.6 °C 0.7 °C 1013.1 hPa NW 2.4 km/h 9.3 km/h 39 % 0 mm
13:30 14.7 °C 1.6 °C 1013.1 hPa SW 7.1 km/h 13 km/h 41 % 0 mm
13:35 14.9 °C 1.7 °C 1012.8 hPa SW 4.5 km/h 14.8 km/h 41 % 0 mm
13:40 15 °C 1.2 °C 1012.8 hPa West 6.1 km/h 9.3 km/h 39 % 0 mm
13:45 15.1 °C 1.6 °C 1012.4 hPa WSW 7.1 km/h 11.1 km/h 40 % 0 mm
13:50 15.2 °C 1.3 °C 1012.4 hPa WSW 7.6 km/h 13 km/h 39 % 0 mm
13:55 15.3 °C 0.7 °C 1012.4 hPa West 10.5 km/h 18.5 km/h 37 % 0 mm
14:01 15.3 °C 0.7 °C 1012.4 hPa SW 9.8 km/h 14.5 km/h 37 % 0 mm
14:06 15.4 °C 0.4 °C 1012.4 hPa WSW 10.3 km/h 14.5 km/h 36 % 0 mm
14:11 15.4 °C -0.4 °C 1012.1 hPa West 9.3 km/h 14.8 km/h 34 % 0 mm
14:16 15.4 °C -0.4 °C 1012.1 hPa WSW 7.6 km/h 13 km/h 34 % 0 mm
14:21 15.4 °C -0.4 °C 1012.1 hPa WSW 8.2 km/h 14.5 km/h 34 % 0 mm
14:26 15.5 °C -1.6 °C 1012.1 hPa SW 7.2 km/h 13 km/h 31 % 0 mm
14:31 15.5 °C -2 °C 1012.1 hPa West 7.2 km/h 18.5 km/h 30 % 0 mm
14:36 15.4 °C -1.6 °C 1012.1 hPa WSW 7.7 km/h 14.8 km/h 31 % 0 mm
14:41 15.4 °C -1.7 °C 1011.7 hPa WNW 10 km/h 18.5 km/h 31 % 0 mm
14:46 15.3 °C -2.2 °C 1012.1 hPa West 12.7 km/h 22.2 km/h 30 % 0 mm
14:51 15.2 °C -2.3 °C 1011.7 hPa West 10 km/h 20.9 km/h 30 % 0 mm
14:56 15.1 °C -2.4 °C 1011.7 hPa WSW 7.4 km/h 18.5 km/h 30 % 0 mm
15:01 15.1 °C -1.9 °C 1011.7 hPa SW 14.2 km/h 20.4 km/h 31 % 0 mm
15:06 15 °C -2.4 °C 1011.7 hPa WSW 12.1 km/h 27.4 km/h 30 % 0 mm
15:11 14.9 °C -2.6 °C 1011.7 hPa ESE 11.7 km/h 20.4 km/h 30 % 0 mm
15:17 14.8 °C -1.7 °C 1011.7 hPa WNW 4.2 km/h 16.7 km/h 32 % 0 mm
15:22 14.8 °C -1.7 °C 1011.7 hPa West 16.9 km/h 29.6 km/h 32 % 0 mm
15:27 14.8 °C -2.2 °C 1011.4 hPa WSW 10.5 km/h 19.3 km/h 31 % 0 mm
15:32 14.8 °C -1.8 °C 1011.4 hPa SW 20.1 km/h 22.2 km/h 32 % 0 mm
15:37 14.7 °C -1.8 °C 1011.4 hPa SW 12.6 km/h 18.5 km/h 32 % 0 mm
15:42 14.7 °C -1.8 °C 1011.1 hPa SSW 16.9 km/h 29.6 km/h 32 % 0 mm
15:47 14.7 °C -2.3 °C 1011.4 hPa SW 11.3 km/h 24.1 km/h 31 % 0 mm
15:52 14.7 °C -1.4 °C 1011.4 hPa SW 14.8 km/h 25.9 km/h 33 % 0 mm
15:57 14.7 °C -1.4 °C 1011.4 hPa SW 11.3 km/h 18.5 km/h 33 % 0 mm
16:02 14.7 °C -1.9 °C 1011.4 hPa WSW 13.2 km/h 22.2 km/h 32 % 0 mm
16:07 14.6 °C -1.9 °C 1011.4 hPa WSW 10.5 km/h 18.5 km/h 32 % 0 mm
16:12 14.6 °C -1.5 °C 1011.4 hPa West 9.8 km/h 14.8 km/h 33 % 0 mm
16:17 14.6 °C -1.9 °C 1011.4 hPa WSW 18.3 km/h 31.5 km/h 32 % 0 mm
16:23 14.5 °C -2 °C 1011.4 hPa SW 15.4 km/h 29.6 km/h 32 % 0 mm
16:28 14.4 °C -2.1 °C 1011.4 hPa West 10.3 km/h 14.8 km/h 32 % 0 mm
16:33 14.4 °C -1.7 °C 1011.4 hPa WSW 6.3 km/h 22.2 km/h 33 % 0 mm
16:38 14.3 °C -1.7 °C 1011.4 hPa WSW 13.4 km/h 24.1 km/h 33 % 0 mm
16:43 14.3 °C -2.2 °C 1011.4 hPa WSW 13.5 km/h 19.3 km/h 32 % 0 mm
16:48 14.3 °C -1.7 °C 1011.1 hPa WSW 10 km/h 18.5 km/h 33 % 0 mm
16:58 14.3 °C -2.2 °C 1011.1 hPa SW 11.1 km/h 29.6 km/h 32 % 0 mm
17:03 14.2 °C -1.8 °C 1011.1 hPa SW 9.3 km/h 22.2 km/h 33 % 0 mm
17:08 14.2 °C -1.5 °C 1011.1 hPa WSW 9.2 km/h 13 km/h 34 % 0 mm
17:13 14.2 °C -1.9 °C 1011.1 hPa SW 13.7 km/h 22.2 km/h 33 % 0 mm
17:18 14.1 °C -1.9 °C 1011.1 hPa SW 5 km/h 9.7 km/h 33 % 0 mm
17:23 14.1 °C -2 °C 1011.1 hPa SW 9.5 km/h 22.2 km/h 33 % 0 mm
17:28 13.9 °C -1.7 °C 1011.1 hPa SSW 6.9 km/h 13 km/h 34 % 0 mm
17:33 13.9 °C -1.3 °C 1010.7 hPa South 7.6 km/h 11.3 km/h 35 % 0 mm
17:39 13.8 °C -1.4 °C 1011.1 hPa SW 10.5 km/h 18.5 km/h 35 % 0 mm
17:44 13.7 °C -1.6 °C 1010.7 hPa SW 9.8 km/h 18.5 km/h 35 % 0 mm
17:49 13.6 °C -1.6 °C 1010.7 hPa SSW 9.7 km/h 14.8 km/h 35 % 0 mm
17:54 13.5 °C -1.7 °C 1010.7 hPa SW 6.4 km/h 11.1 km/h 35 % 0 mm
17:59 13.4 °C -1.4 °C 1010.7 hPa SW 3.9 km/h 11.1 km/h 36 % 0 mm
18:04 13.3 °C -1.5 °C 1010.7 hPa SSW 8 km/h 18.5 km/h 36 % 0 mm
18:09 13.2 °C -1.6 °C 1010.7 hPa South 9.3 km/h 11.1 km/h 36 % 0 mm
18:14 13.1 °C -1.7 °C 1010.7 hPa SSW 7.9 km/h 13 km/h 36 % 0 mm
18:19 13 °C -1.4 °C 1011.1 hPa SW 4.7 km/h 7.4 km/h 37 % 0 mm
18:24 12.9 °C -1.4 °C 1011.1 hPa SSW 5.5 km/h 7.4 km/h 37 % 0 mm
18:29 12.8 °C -1.2 °C 1011.1 hPa SSW 1.6 km/h 5.6 km/h 38 % 0 mm
18:34 12.6 °C 0 °C 1011.1 hPa South 3.4 km/h 7.4 km/h 42 % 0 mm
18:40 12.3 °C 0.7 °C 1011.1 hPa SSW 8.9 km/h 11.1 km/h 45 % 0 mm
18:45 12 °C 1 °C 1011.1 hPa WSW 2.4 km/h 9.3 km/h 47 % 0 mm
18:50 11.7 °C 1.3 °C 1011.1 hPa South 6.8 km/h 7.4 km/h 49 % 0 mm
18:55 11.4 °C 1.6 °C 1011.1 hPa South 5.6 km/h 13 km/h 51 % 0 mm
19:00 11.2 °C 1.7 °C 1011.1 hPa SSE 6.1 km/h 16.7 km/h 52 % 0 mm
19:05 10.9 °C 1.9 °C 1011.1 hPa South 4.8 km/h 9.3 km/h 54 % 0 mm
19:10 10.7 °C 2.2 °C 1011.1 hPa South 7.2 km/h 11.1 km/h 56 % 0 mm
19:15 10.4 °C 2.2 °C 1011.1 hPa SSW 8.9 km/h 13 km/h 57 % 0 mm
19:20 10.2 °C 2.3 °C 1011.1 hPa SSW 5.5 km/h 9.3 km/h 58 % 0 mm
19:25 9.9 °C 2.3 °C 1010.7 hPa SW 4.8 km/h 9.3 km/h 59 % 0 mm
19:30 9.7 °C 2.3 °C 1010.7 hPa South 6.4 km/h 11.1 km/h 60 % 0 mm
19:35 9.6 °C 2.4 °C 1010.7 hPa SSW 9 km/h 13 km/h 61 % 0 mm
19:41 9.4 °C 2.5 °C 1010.7 hPa South 7.2 km/h 18.5 km/h 62 % 0 mm
19:46 9.3 °C 2.4 °C 1010.7 hPa South 7.1 km/h 9.3 km/h 62 % 0 mm
19:51 9.3 °C 2.1 °C 1010.7 hPa South 7.1 km/h 11.1 km/h 61 % 0 mm
19:56 9.2 °C 2.1 °C 1010.7 hPa South 9.7 km/h 16.7 km/h 61 % 0 mm
20:01 9.3 °C 2.1 °C 1010.7 hPa SSW 8.5 km/h 13 km/h 61 % 0 mm
20:06 9.3 °C 1.9 °C 1010.7 hPa SSE 9.2 km/h 18.5 km/h 60 % 0 mm
20:11 9.3 °C 1.9 °C 1010.7 hPa SSW 6 km/h 13 km/h 60 % 0 mm
20:16 9.3 °C 1.9 °C 1010.7 hPa SSW 6.9 km/h 11.1 km/h 60 % 0 mm
20:21 9.4 °C 1.8 °C 1011.1 hPa SSW 8.5 km/h 14.5 km/h 59 % 0 mm
20:26 9.4 °C 1.8 °C 1010.7 hPa South 9.7 km/h 14.8 km/h 59 % 0 mm
20:31 9.5 °C 1.9 °C 1010.7 hPa SSW 9.8 km/h 13 km/h 59 % 0 mm
20:36 9.6 °C 1.9 °C 1010.7 hPa SW 8.5 km/h 20.4 km/h 59 % 0 mm
20:41 9.6 °C 1.9 °C 1011.1 hPa SW 8.9 km/h 16.7 km/h 59 % 0 mm
20:47 9.6 °C 2.2 °C 1011.1 hPa SSW 9.8 km/h 18.5 km/h 60 % 0 mm
20:52 9.6 °C 2.2 °C 1011.1 hPa SSW 10.1 km/h 18.5 km/h 60 % 0 mm
20:57 9.5 °C 2.1 °C 1011.1 hPa South 9.3 km/h 13 km/h 60 % 0 mm
21:02 9.5 °C 2.1 °C 1011.1 hPa South 5 km/h 12.9 km/h 60 % 0 mm
21:07 9.4 °C 2.3 °C 1011.1 hPa SW 12.6 km/h 19.3 km/h 61 % 0 mm
21:12 9.4 °C 2.3 °C 1011.1 hPa SSW 15.1 km/h 22.2 km/h 61 % 0 mm
21:17 9.4 °C 2.3 °C 1011.4 hPa South 8.9 km/h 18.5 km/h 61 % 0 mm
21:22 9.4 °C 2.2 °C 1011.1 hPa SW 13.2 km/h 20.4 km/h 61 % 0 mm
21:27 9.4 °C 2.4 °C 1011.4 hPa SSW 8.5 km/h 16.7 km/h 62 % 0 mm
21:32 9.3 °C 2.2 °C 1011.4 hPa SSW 11.3 km/h 18.5 km/h 61 % 0 mm
21:37 9.3 °C 2.2 °C 1011.4 hPa SSW 9 km/h 13 km/h 61 % 0 mm
21:42 9.3 °C 2.2 °C 1011.4 hPa SW 6.4 km/h 13 km/h 61 % 0 mm
21:47 9.3 °C 2.2 °C 1011.4 hPa SSW 12.2 km/h 27.8 km/h 61 % 0 mm
21:53 9.4 °C 2 °C 1011.4 hPa SSW 13 km/h 20.9 km/h 60 % 0 mm
21:58 9.4 °C 2.1 °C 1011.4 hPa West 10.8 km/h 18.5 km/h 60 % 0 mm
22:03 9.4 °C 2.2 °C 1011.4 hPa SSW 11.4 km/h 25.9 km/h 61 % 0 mm
22:08 9.4 °C 2.3 °C 1011.4 hPa SW 8 km/h 24.1 km/h 61 % 0 mm
22:13 9.4 °C 2.1 °C 1011.4 hPa SSW 8 km/h 24.1 km/h 60 % 0 mm
22:18 9.4 °C 2.1 °C 1011.4 hPa SSW 11.3 km/h 19.3 km/h 60 % 0 mm
22:23 9.4 °C 2.1 °C 1011.4 hPa SSW 9.7 km/h 27.4 km/h 60 % 0 mm
22:28 9.4 °C 2.1 °C 1011.4 hPa SSW 12.9 km/h 27.4 km/h 60 % 0 mm
22:33 9.3 °C 2 °C 1011.4 hPa SSW 12.9 km/h 20.9 km/h 60 % 0 mm
22:38 9.3 °C 1.7 °C 1011.4 hPa SSW 9.7 km/h 19.3 km/h 59 % 0 mm
22:43 9.4 °C 1.3 °C 1011.4 hPa SW 9.7 km/h 22.5 km/h 57 % 0 mm
22:48 9.6 °C 0.7 °C 1011.1 hPa SW 14.6 km/h 20.4 km/h 54 % 0 mm
22:53 9.9 °C 0.4 °C 1011.1 hPa SW 11.3 km/h 24.1 km/h 52 % 0 mm
22:58 10.1 °C 0.1 °C 1011.1 hPa SW 11.3 km/h 22.2 km/h 50 % 0 mm
23:03 10.2 °C -0.3 °C 1011.1 hPa SW 12.9 km/h 24.1 km/h 48 % 0 mm
23:08 10.3 °C -0.2 °C 1011.1 hPa SW 4.8 km/h 19.3 km/h 48 % 0 mm
23:13 10.3 °C 0.1 °C 1011.1 hPa SSW 8 km/h 19.3 km/h 49 % 0 mm
23:18 10.3 °C 0.6 °C 1011.1 hPa SSW 12.9 km/h 22.5 km/h 51 % 0 mm
23:23 10.2 °C 0.7 °C 1011.1 hPa SW 7.2 km/h 11.3 km/h 52 % 0 mm
23:28 10.1 °C 0.6 °C 1011.1 hPa SSW 8 km/h 16.1 km/h 52 % 0 mm
23:33 9.9 °C 0.6 °C 1011.1 hPa SW 11.3 km/h 19.3 km/h 52 % 0 mm
23:38 9.8 °C -0.1 °C 1010.7 hPa SW 12.9 km/h 20.9 km/h 50 % 0 mm
23:43 9.9 °C -0.8 °C 1011.1 hPa SSW 15.1 km/h 24.1 km/h 47 % 0 mm
23:48 10.2 °C -1.2 °C 1011.1 hPa SW 9.7 km/h 20.9 km/h 45 % 0 mm
23:53 10.4 °C -1.9 °C 1010.7 hPa SW 11.3 km/h 24.1 km/h 42 % 0 mm
23:58 10.9 °C -2.6 °C 1011.1 hPa West 11.1 km/h 22.2 km/h 39 % 0 mm
Crab Meadow Weather
Compliments of Weather Underground - 3 mb

Script developed by  Jim McMurry - jmcmurry@mwt.net Adapted for the template by  Wim van der Kuil - Leuven-Template.eu

Weather Terms: Blizzard Warning - Sustained winds or frequent gusts of 35 mph or greater, considerable falling and/or blowing snow reducing visibility frequently to 1/4 mile or less for a period of three hours or more. There are no temperature criteria in the definition of a blizzard but freezing temperatures and 35 mph winds will create sub-zero wind chills.